Terminal Aerodrome Forecast
Issued by NWS

Home | Current Version | Previous Version | Text Only | Print | Product List | Glossary On
Versions: 1 2 3 4 5 6 7 8 9 10 11 12 13 14 15 16 17
000
FTUS43 KEAX 161100
TAFSTJ
TAF
KSTJ 161126Z 1612/1712 32018G25KT P6SM OVC020
     FM162000 33012KT P6SM SCT025
     FM170000 35003KT P6SM BKN015=

USA.gov is the U.S. government's official web portal to all federal, state and local government web resources and services.